Senneville, Canada
Current Conditions -  °F | °C
As of 3:00 PM on Sunday 23 Nov 2014 (Local Time) from CYUL Reporting Station
Haze Haze  
Wind Chill: 39°   Ceiling: 300
Heat Index: 43°   Visibility: 0.75mi
Dew Point: 41°   Wind: 6mph
Humidity: 93%   Direction: 110°ESE
Pressure: 30.01"   Gusts: NA
Location:  45.43°N, 73.97°W
Report Text: CYUL 232000Z 11005KT 3/4SM R24R/P6000FT/D R24L/P6000FT/U BR BKN003 OVC006 06/05 A3001 RMK SF6ST2 SLP165
Loading
Personal Weather Stations






























Interactive Weather Map New forecast layout! Learn more

10-Day Weather Forecast

Advertisements
Track Severe Weather on mobile